Time;durP1;ratioP1;P1;durP2;ratioP2;P2;SDS_P1;SDS_P2;PMS_P1;PMS_P2;Temp;Humidity;BMP_temperature;BMP_pressure;BME280_temperature;BME280_humidity;BME280_pressure;Samples;Min_cycle;Max_cycle;Signal;HPM_P1;HPM_P2
2023/11/28 00:00:32;;;;;;;2.60;2.40;;;4.00;99.90;;;;;;5033656;28;20196;-61
2023/11/28 00:02:59;;;;;;;2.50;2.40;;;4.10;99.90;;;;;;5033696;28;20730;-61
2023/11/28 00:05:27;;;;;;;2.80;2.40;;;4.00;99.90;;;;;;5033092;28;20229;-61
2023/11/28 00:07:54;;;;;;;2.83;2.20;;;4.00;99.90;;;;;;5032878;28;20198;-61
2023/11/28 00:10:21;;;;;;;4.47;2.43;;;4.00;99.90;;;;;;5032769;28;20576;-61
2023/11/28 00:12:48;;;;;;;2.37;2.27;;;4.40;99.90;;;;;;5031972;28;20198;-61
2023/11/28 00:15:16;;;;;;;2.73;2.53;;;4.00;99.90;;;;;;5020801;28;20220;-61
2023/11/28 00:17:43;;;;;;;2.87;2.63;;;4.00;99.90;;;;;;5020542;28;20220;-61
2023/11/28 00:20:11;;;;;;;3.13;2.60;;;4.00;99.90;;;;;;5019538;28;20224;-61
2023/11/28 00:22:39;;;;;;;3.70;3.40;;;4.00;99.90;;;;;;5029088;28;20202;-61
2023/11/28 00:25:07;;;;;;;3.40;3.17;;;4.00;99.90;;;;;;5021305;28;20315;-61
2023/11/28 00:27:34;;;;;;;4.13;3.73;;;3.90;99.90;;;;;;5028215;28;20201;-61
2023/11/28 00:30:02;;;;;;;3.53;3.33;;;4.00;99.90;;;;;;5030044;28;20248;-61
2023/11/28 00:32:30;;;;;;;4.33;3.97;;;4.00;99.90;;;;;;5028955;28;20213;-62
2023/11/28 00:34:56;;;;;;;5.63;4.60;;;3.90;99.90;;;;;;5027138;28;20280;-62
2023/11/28 00:37:23;;;;;;;5.10;4.57;;;3.90;99.90;;;;;;5027862;28;20775;-61
2023/11/28 00:39:52;;;;;;;6.20;4.63;;;3.90;99.90;;;;;;5031803;28;20204;-61
2023/11/28 00:42:19;;;;;;;4.97;4.57;;;3.90;99.90;;;;;;5031961;28;20200;-61
2023/11/28 00:44:45;;;;;;;5.27;4.80;;;3.80;99.90;;;;;;5032877;28;20197;-61
2023/11/28 00:47:12;;;;;;;4.23;3.83;;;3.80;99.90;;;;;;5031447;28;20675;-61
2023/11/28 00:49:42;;;;;;;6.13;3.87;;;3.80;99.90;;;;;;5032575;28;20237;-61
2023/11/28 00:52:09;;;;;;;4.20;3.80;;;3.80;99.90;;;;;;5030959;28;20235;-61
2023/11/28 00:54:36;;;;;;;3.93;3.60;;;3.80;99.90;;;;;;5023780;28;20673;-61
2023/11/28 00:57:05;;;;;;;4.70;4.13;;;3.90;99.90;;;;;;5027368;28;20220;-61
2023/11/28 00:59:32;;;;;;;5.33;4.67;;;3.90;99.90;;;;;;5030350;28;20201;-61
2023/11/28 01:02:00;;;;;;;5.27;4.87;;;3.80;99.90;;;;;;5032045;28;20234;-61
2023/11/28 01:04:27;;;;;;;5.07;4.67;;;3.90;99.90;;;;;;5032430;28;20199;-61
2023/11/28 01:06:54;;;;;;;5.80;4.97;;;3.90;99.90;;;;;;5031679;28;20225;-61
2023/11/28 01:09:21;;;;;;;5.73;5.17;;;3.90;99.90;;;;;;5030919;28;20211;-61
2023/11/28 01:11:48;;;;;;;6.97;4.83;;;3.80;99.90;;;;;;5029434;28;20207;-61
2023/11/28 01:14:16;;;;;;;7.57;6.47;;;3.80;99.90;;;;;;5022384;28;20687;-61
2023/11/28 01:16:45;;;;;;;5.87;5.27;;;3.80;99.90;;;;;;5013659;28;20224;-61
2023/11/28 01:19:12;;;;;;;8.50;5.37;;;3.80;99.90;;;;;;5026005;28;20254;-61
2023/11/28 01:21:39;;;;;;;7.30;5.27;;;3.90;99.90;;;;;;5032176;28;20213;-61
2023/11/28 01:24:06;;;;;;;6.77;6.07;;;3.80;99.90;;;;;;5032116;28;20626;-61
2023/11/28 01:26:33;;;;;;;8.80;5.80;;;3.80;99.90;;;;;;5029885;28;20221;-61
2023/11/28 01:29:00;;;;;;;5.90;4.80;;;3.80;99.90;;;;;;5029943;28;20205;-61
2023/11/28 01:31:30;;;;;;;5.50;4.47;;;3.80;99.90;;;;;;5020951;28;20672;-61
2023/11/28 01:33:57;;;;;;;5.30;4.90;;;3.80;99.90;;;;;;5012107;28;20262;-61
2023/11/28 01:36:24;;;;;;;8.40;6.03;;;3.80;99.90;;;;;;5023695;28;20271;-61
2023/11/28 01:38:51;;;;;;;6.97;6.30;;;3.80;99.90;;;;;;5031153;28;20209;-61
2023/11/28 01:41:18;;;;;;;6.83;6.17;;;3.90;99.90;;;;;;5031723;28;20732;-61
2023/11/28 01:43:45;;;;;;;7.70;6.43;;;3.90;99.90;;;;;;5031843;28;20257;-61
2023/11/28 01:46:13;;;;;;;6.63;5.73;;;3.90;99.90;;;;;;5031190;28;20225;-61
2023/11/28 01:48:41;;;;;;;5.33;4.93;;;3.90;99.90;;;;;;5029732;28;20209;-61
2023/11/28 01:51:09;;;;;;;6.97;5.37;;;3.90;99.90;;;;;;5023216;28;20210;-61
2023/11/28 01:53:37;;;;;;;6.37;5.87;;;3.80;99.90;;;;;;5012053;28;20201;-61
2023/11/28 01:56:05;;;;;;;8.63;5.70;;;3.80;99.90;;;;;;5011345;28;20225;-61
2023/11/28 01:58:32;;;;;;;6.10;5.60;;;3.80;99.90;;;;;;5024803;28;20391;-61
2023/11/28 02:01:00;;;;;;;6.43;5.83;;;3.80;99.90;;;;;;5030505;28;20228;-61
2023/11/28 02:03:28;;;;;;;6.03;5.47;;;3.80;99.90;;;;;;5031786;28;20263;-61
2023/11/28 02:05:58;;;;;;;6.00;5.60;;;3.80;99.90;;;;;;5030845;28;20260;-61
2023/11/28 02:08:25;;;;;;;7.43;4.60;;;3.90;99.90;;;;;;5024652;28;20262;-61
2023/11/28 02:10:52;;;;;;;6.03;5.53;;;3.90;99.90;;;;;;5026540;28;20259;-61
2023/11/28 02:13:19;;;;;;;6.07;5.23;;;3.80;99.90;;;;;;5031441;28;20198;-61
2023/11/28 02:15:47;;;;;;;6.53;4.50;;;3.90;99.90;;;;;;5027873;28;20226;-61
2023/11/28 02:18:15;;;;;;;4.93;4.53;;;3.90;99.90;;;;;;5030905;28;20781;-61
2023/11/28 02:20:42;;;;;;;5.83;5.33;;;3.90;99.90;;;;;;5031891;28;20200;-61
2023/11/28 02:23:10;;;;;;;4.80;4.33;;;4.00;99.90;;;;;;5031927;28;20262;-61
2023/11/28 02:25:43;;;;;;;4.67;4.27;;;3.80;99.90;;;;;;5031640;28;20270;-61
2023/11/28 02:28:17;;;;;;;6.80;4.63;;;3.80;99.90;;;;;;5029369;28;20270;-61
2023/11/28 02:30:47;;;;;;;3.67;3.40;;;3.80;99.90;;;;;;5028350;28;20200;-61
2023/11/28 02:33:15;;;;;;;5.03;4.27;;;3.70;99.90;;;;;;5031574;28;20691;-61
2023/11/28 02:35:42;;;;;;;4.50;4.10;;;3.80;99.90;;;;;;5031616;28;20250;-61
2023/11/28 02:38:09;;;;;;;4.40;4.00;;;3.80;99.90;;;;;;5024806;28;20601;-61
2023/11/28 02:40:36;;;;;;;4.07;3.77;;;3.80;99.90;;;;;;5031395;28;20200;-61
2023/11/28 02:43:03;;;;;;;4.33;4.03;;;3.80;99.90;;;;;;5030811;28;20204;-61
2023/11/28 02:45:31;;;;;;;4.20;3.90;;;3.80;99.90;;;;;;5030595;28;20229;-61
2023/11/28 02:47:58;;;;;;;3.87;3.57;;;3.80;99.90;;;;;;5025525;28;20205;-61
2023/11/28 02:50:26;;;;;;;4.30;3.93;;;3.80;99.90;;;;;;5032695;28;20274;-61
2023/11/28 02:52:53;;;;;;;3.20;3.00;;;3.80;99.90;;;;;;5035168;28;20239;-61
2023/11/28 02:55:20;;;;;;;4.17;3.87;;;3.80;99.90;;;;;;5035487;28;20792;-61
2023/11/28 02:57:47;;;;;;;3.03;2.93;;;3.80;99.90;;;;;;5034241;28;20263;-61
2023/11/28 03:00:15;;;;;;;3.10;2.90;;;3.80;99.90;;;;;;5035366;28;20204;-61
2023/11/28 03:02:43;;;;;;;3.30;3.00;;;3.80;99.90;;;;;;5035114;28;20267;-61
2023/11/28 03:05:10;;;;;;;4.23;3.70;;;3.80;99.90;;;;;;5033167;28;20237;-61
2023/11/28 03:07:37;;;;;;;4.77;4.47;;;3.80;99.90;;;;;;5021922;28;20193;-61
2023/11/28 03:10:05;;;;;;;4.13;3.83;;;3.70;99.90;;;;;;5034435;28;20247;-61
2023/11/28 03:12:31;;;;;;;4.07;3.77;;;3.70;99.90;;;;;;5035106;28;20271;-61
2023/11/28 03:14:58;;;;;;;5.30;3.37;;;3.80;99.90;;;;;;5035112;28;20222;-61
2023/11/28 03:17:25;;;;;;;5.60;3.83;;;3.80;99.90;;;;;;5033864;28;20224;-61
2023/11/28 03:19:53;;;;;;;3.83;3.60;;;3.80;99.90;;;;;;5034854;28;20254;-61
2023/11/28 03:22:20;;;;;;;4.03;3.73;;;3.80;99.90;;;;;;5033418;28;20252;-61
2023/11/28 03:24:47;;;;;;;3.73;3.53;;;3.80;99.90;;;;;;5029557;28;20207;-61
2023/11/28 03:27:17;;;;;;;4.13;3.83;;;3.90;99.90;;;;;;5019180;28;20201;-61
2023/11/28 03:29:44;;;;;;;4.80;3.87;;;3.90;99.90;;;;;;5034796;28;20278;-61
2023/11/28 03:32:11;;;;;;;5.17;4.77;;;3.90;99.90;;;;;;5034815;28;20204;-62
2023/11/28 03:34:39;;;;;;;3.93;3.53;;;3.90;99.90;;;;;;5034524;28;20235;-61
2023/11/28 03:37:08;;;;;;;4.70;4.40;;;3.90;99.90;;;;;;5033161;28;20205;-61
2023/11/28 03:39:35;;;;;;;3.83;3.63;;;3.80;99.90;;;;;;5034913;28;20196;-61
2023/11/28 03:42:02;;;;;;;3.30;3.20;;;3.90;99.90;;;;;;5034160;28;20282;-61
2023/11/28 03:44:29;;;;;;;3.23;3.10;;;3.80;99.90;;;;;;5025561;28;20201;-61
2023/11/28 03:46:56;;;;;;;4.03;3.80;;;3.80;99.90;;;;;;5015872;28;20269;-62
2023/11/28 03:49:23;;;;;;;5.50;3.27;;;3.80;99.90;;;;;;5030308;28;20254;-61
2023/11/28 03:51:50;;;;;;;4.20;4.00;;;3.80;99.90;;;;;;5033487;28;20267;-61
2023/11/28 03:54:19;;;;;;;2.73;2.60;;;3.80;99.90;;;;;;5028985;28;20678;-61
2023/11/28 03:56:46;;;;;;;4.07;3.77;;;3.80;99.90;;;;;;5027907;28;20221;-61
2023/11/28 03:59:13;;;;;;;3.60;3.30;;;3.80;99.90;;;;;;5027871;28;20221;-61
2023/11/28 04:01:43;;;;;;;3.60;3.30;;;3.80;99.90;;;;;;5031464;28;20253;-61
2023/11/28 04:04:10;;;;;;;4.13;3.83;;;3.80;99.90;;;;;;5028348;28;20207;-61
2023/11/28 04:06:41;;;;;;;4.00;3.67;;;3.80;99.90;;;;;;5037366;28;20220;-61
2023/11/28 04:09:07;;;;;;;3.93;3.73;;;3.80;99.90;;;;;;5039031;28;20728;-61
2023/11/28 04:11:40;;;;;;;2.83;2.73;;;3.80;99.90;;;;;;5040502;28;20227;-62
2023/11/28 04:14:06;;;;;;;5.77;3.30;;;3.80;99.90;;;;;;5039327;28;20239;-64
2023/11/28 04:16:33;;;;;;;2.67;2.50;;;3.80;99.90;;;;;;5038511;28;20233;-61
2023/11/28 04:19:00;;;;;;;2.40;2.30;;;3.90;99.90;;;;;;5037414;28;20224;-61
2023/11/28 04:21:27;;;;;;;2.50;2.33;;;3.90;99.90;;;;;;5032016;28;20567;-61
2023/11/28 04:23:54;;;;;;;3.63;2.63;;;3.90;99.90;;;;;;5036836;28;20254;-61
2023/11/28 04:26:22;;;;;;;2.03;1.93;;;3.90;99.90;;;;;;5035693;28;20252;-61
2023/11/28 04:28:50;;;;;;;1.80;1.70;;;3.90;99.90;;;;;;5036984;28;20289;-61
2023/11/28 04:31:18;;;;;;;3.13;1.83;;;3.90;99.90;;;;;;5036828;28;20262;-61
2023/11/28 04:33:45;;;;;;;2.00;1.90;;;3.90;99.90;;;;;;5033024;28;20242;-62
2023/11/28 04:36:14;;;;;;;2.53;2.40;;;3.90;99.90;;;;;;5030691;28;20279;-62
2023/11/28 04:38:41;;;;;;;3.03;2.23;;;3.80;99.90;;;;;;5026000;28;20720;-61
2023/11/28 04:41:11;;;;;;;3.00;2.60;;;3.80;99.90;;;;;;5037204;28;20774;-61
2023/11/28 04:43:38;;;;;;;3.73;3.20;;;3.90;99.90;;;;;;5027785;28;20244;-61
2023/11/28 04:46:08;;;;;;;2.63;2.43;;;3.80;99.90;;;;;;5028925;28;20266;-61
2023/11/28 04:48:35;;;;;;;2.77;2.57;;;3.80;99.90;;;;;;5028151;28;20688;-61
2023/11/28 04:51:02;;;;;;;2.70;2.60;;;3.80;99.90;;;;;;5029425;28;20331;-61
2023/11/28 04:53:29;;;;;;;4.13;3.23;;;3.90;99.90;;;;;;5019408;28;20259;-61
2023/11/28 04:55:56;;;;;;;2.77;2.57;;;3.90;99.90;;;;;;5030261;28;20224;-61
2023/11/28 04:58:23;;;;;;;2.33;2.23;;;3.90;99.90;;;;;;5038051;28;20275;-61
2023/11/28 05:00:50;;;;;;;2.83;2.10;;;3.80;99.90;;;;;;5038278;28;20269;-61
2023/11/28 05:03:18;;;;;;;2.73;2.47;;;3.80;99.90;;;;;;5036619;28;20201;-61
2023/11/28 05:05:45;;;;;;;3.47;3.27;;;3.80;99.90;;;;;;5031850;28;20236;-61
2023/11/28 05:08:13;;;;;;;4.73;2.90;;;3.80;99.90;;;;;;5027516;28;20218;-61
2023/11/28 05:10:40;;;;;;;3.80;3.40;;;3.80;99.90;;;;;;5036431;28;20205;-61
2023/11/28 05:13:07;;;;;;;2.93;2.77;;;3.80;99.90;;;;;;5036415;28;20690;-61
2023/11/28 05:15:34;;;;;;;2.60;2.23;;;3.90;99.90;;;;;;5036561;28;20222;-61
2023/11/28 05:18:01;;;;;;;4.80;2.87;;;3.80;99.90;;;;;;5036523;28;20230;-61
2023/11/28 05:20:29;;;;;;;3.03;2.73;;;3.70;99.90;;;;;;5037622;28;20201;-61
2023/11/28 05:22:57;;;;;;;2.57;2.40;;;3.80;99.90;;;;;;5034488;28;20196;-61
2023/11/28 05:25:24;;;;;;;2.77;2.60;;;3.80;99.90;;;;;;5035144;28;20224;-61
2023/11/28 05:27:51;;;;;;;3.47;3.27;;;3.80;99.90;;;;;;5037076;28;20204;-61
2023/11/28 05:30:18;;;;;;;3.33;3.10;;;3.70;99.90;;;;;;5037235;28;20201;-61
2023/11/28 05:32:45;;;;;;;4.47;4.00;;;3.70;99.90;;;;;;5036750;28;20255;-61
2023/11/28 05:35:12;;;;;;;3.37;3.17;;;3.70;99.90;;;;;;5036690;28;20307;-61
2023/11/28 05:37:40;;;;;;;3.63;3.43;;;3.70;99.90;;;;;;5035215;28;20330;-61
2023/11/28 05:40:09;;;;;;;3.63;3.37;;;3.80;99.90;;;;;;5026278;28;20204;-62
2023/11/28 05:42:36;;;;;;;3.37;3.07;;;3.70;99.90;;;;;;5035806;28;20256;-62
2023/11/28 05:45:03;;;;;;;3.80;3.50;;;3.70;99.90;;;;;;5036366;28;20283;-61
2023/11/28 05:47:30;;;;;;;3.70;3.50;;;3.70;99.90;;;;;;5035222;28;20334;-61
2023/11/28 05:49:57;;;;;;;4.63;4.23;;;3.70;99.90;;;;;;5033667;28;20199;-61
2023/11/28 05:52:24;;;;;;;3.40;3.20;;;3.70;99.90;;;;;;5036167;28;20261;-61
2023/11/28 05:54:53;;;;;;;8.57;5.87;;;3.70;99.90;;;;;;5036870;28;20231;-61
2023/11/28 05:57:20;;;;;;;7.10;6.53;;;3.70;99.90;;;;;;5035594;28;20291;-61
2023/11/28 05:59:47;;;;;;;5.97;4.80;;;3.70;99.90;;;;;;5037484;28;20294;-61
2023/11/28 06:02:14;;;;;;;5.17;4.67;;;3.70;99.90;;;;;;5018710;28;20255;-61
2023/11/28 06:04:41;;;;;;;5.93;4.93;;;3.70;99.90;;;;;;5020353;28;20205;-61
2023/11/28 06:07:08;;;;;;;6.17;5.57;;;3.70;99.90;;;;;;5033660;28;20662;-62
2023/11/28 06:09:35;;;;;;;3.80;3.53;;;3.60;99.90;;;;;;5033822;28;20655;-61
2023/11/28 06:12:04;;;;;;;4.00;3.70;;;3.60;99.90;;;;;;5021029;28;20214;-62
2023/11/28 06:14:31;;;;;;;4.77;4.13;;;3.70;99.90;;;;;;5019251;28;20622;-61
2023/11/28 06:16:59;;;;;;;4.30;3.90;;;3.70;99.90;;;;;;5035456;28;20226;-61
2023/11/28 06:19:26;;;;;;;5.83;4.37;;;3.80;99.90;;;;;;5035893;28;21437;-61
2023/11/28 06:21:53;;;;;;;4.20;4.00;;;3.70;99.90;;;;;;5036068;28;20244;-61
2023/11/28 06:24:20;;;;;;;4.40;4.00;;;3.80;99.90;;;;;;5035514;28;20222;-62
2023/11/28 06:26:47;;;;;;;4.80;4.33;;;3.80;99.90;;;;;;5039186;28;20220;-61
2023/11/28 06:29:15;;;;;;;4.57;4.23;;;3.70;99.90;;;;;;5032753;28;20282;-62
2023/11/28 06:31:43;;;;;;;4.83;4.43;;;3.70;99.90;;;;;;5030759;28;20209;-61
2023/11/28 06:34:10;;;;;;;4.17;3.87;;;3.70;99.90;;;;;;5037036;28;20201;-61
2023/11/28 06:36:37;;;;;;;5.07;4.77;;;3.70;99.90;;;;;;5035563;28;20216;-61
2023/11/28 06:39:04;;;;;;;4.83;4.40;;;3.70;99.90;;;;;;5036207;28;20308;-61
2023/11/28 06:41:31;;;;;;;4.37;3.83;;;3.70;99.90;;;;;;5034579;28;20255;-61
2023/11/28 06:43:58;;;;;;;3.30;3.10;;;3.70;99.90;;;;;;5035426;28;20199;-61
2023/11/28 06:46:27;;;;;;;3.03;2.83;;;3.80;99.90;;;;;;5029195;28;20694;-61
2023/11/28 06:48:54;;;;;;;3.37;3.07;;;3.80;99.90;;;;;;5027302;28;20283;-61
2023/11/28 06:51:21;;;;;;;3.27;2.73;;;3.80;99.90;;;;;;5033370;28;20284;-61
2023/11/28 06:53:48;;;;;;;5.17;4.77;;;3.80;99.90;;;;;;5029821;28;20248;-61
2023/11/28 06:56:15;;;;;;;4.33;4.03;;;3.80;99.90;;;;;;5035070;28;20216;-61
2023/11/28 06:58:42;;;;;;;3.07;2.90;;;3.90;99.90;;;;;;5034244;28;20224;-62
2023/11/28 07:01:09;;;;;;;3.93;3.43;;;3.90;99.90;;;;;;5023299;28;20288;-62
2023/11/28 07:03:38;;;;;;;3.63;3.40;;;3.90;99.90;;;;;;5030996;28;20258;-61
2023/11/28 07:06:06;;;;;;;6.67;4.47;;;3.80;99.90;;;;;;5032312;28;20237;-61
2023/11/28 07:08:35;;;;;;;4.40;4.00;;;3.90;99.90;;;;;;5027567;28;20706;-61
2023/11/28 07:11:02;;;;;;;3.10;2.90;;;3.90;99.90;;;;;;5015220;28;20292;-61
2023/11/28 07:13:29;;;;;;;4.72;4.32;;;3.90;99.90;;;;;;5013608;28;20442;-60
2023/11/28 07:15:56;;;;;;;4.30;4.00;;;3.90;99.90;;;;;;5029142;28;20220;-60
2023/11/28 07:18:24;;;;;;;4.00;3.50;;;3.90;99.90;;;;;;5024891;28;20238;-60
2023/11/28 07:20:53;;;;;;;4.50;4.17;;;3.90;99.90;;;;;;5030373;28;20202;-66
2023/11/28 07:23:20;;;;;;;5.73;4.83;;;3.90;99.90;;;;;;5029109;28;20669;-65
2023/11/28 07:25:48;;;;;;;4.37;3.93;;;3.90;99.90;;;;;;5025888;28;20769;-65
2023/11/28 07:28:15;;;;;;;4.40;4.10;;;3.90;99.90;;;;;;5031352;28;20208;-65
2023/11/28 07:30:42;;;;;;;3.63;3.40;;;4.00;99.90;;;;;;5034538;28;20202;-60
2023/11/28 07:33:09;;;;;;;3.37;3.07;;;4.00;99.90;;;;;;5025494;28;20204;-61
2023/11/28 07:35:36;;;;;;;2.47;2.37;;;4.00;99.90;;;;;;5025204;28;20215;-61
2023/11/28 07:38:04;;;;;;;3.33;2.93;;;4.10;99.90;;;;;;5032775;28;20203;-61
2023/11/28 07:40:33;;;;;;;2.60;2.33;;;4.20;99.90;;;;;;5034791;28;20589;-61
2023/11/28 07:43:00;;;;;;;2.33;2.23;;;4.30;99.90;;;;;;5033792;28;20204;-61
2023/11/28 07:45:29;;;;;;;1.77;1.67;;;4.30;99.90;;;;;;5033468;28;20217;-62
2023/11/28 07:47:57;;;;;;;1.10;1.10;;;4.40;99.90;;;;;;5026076;28;20204;-61
2023/11/28 07:50:24;;;;;;;1.60;1.50;;;4.50;99.90;;;;;;5030364;28;20292;-61
2023/11/28 07:52:52;;;;;;;1.80;1.70;;;4.60;99.90;;;;;;5022347;28;20263;-61
2023/11/28 07:55:20;;;;;;;1.67;1.57;;;4.60;99.90;;;;;;5033001;28;20222;-61
2023/11/28 07:57:47;;;;;;;2.50;2.40;;;4.70;99.90;;;;;;5030402;28;20202;-61
2023/11/28 08:00:14;;;;;;;1.93;1.83;;;4.70;99.90;;;;;;5034217;28;20219;-61
2023/11/28 08:02:41;;;;;;;2.17;1.63;;;4.70;99.90;;;;;;5031724;28;20205;-61
2023/11/28 08:05:09;;;;;;;2.08;1.40;;;4.80;99.90;;;;;;5033681;28;20435;-66
2023/11/28 08:07:36;;;;;;;1.53;1.43;;;4.70;99.90;;;;;;5032201;28;20821;-64
2023/11/28 08:10:07;;;;;;;1.70;1.63;;;4.80;99.90;;;;;;5029500;28;20694;-63
2023/11/28 08:12:35;;;;;;;0.90;0.90;;;4.80;99.90;;;;;;5030359;28;20211;-61
2023/11/28 08:15:02;;;;;;;1.07;0.70;;;4.80;99.90;;;;;;5014512;28;20226;-61
2023/11/28 08:17:29;;;;;;;0.83;0.30;;;4.90;99.90;;;;;;5016197;28;20256;-61
2023/11/28 08:19:57;;;;;;;0.30;0.30;;;4.90;99.90;;;;;;5033203;28;20219;-60
2023/11/28 08:22:25;;;;;;;0.60;0.60;;;5.10;99.90;;;;;;5034801;28;20200;-61
2023/11/28 08:24:53;;;;;;;0.40;0.40;;;5.10;99.90;;;;;;5034181;28;20251;-60
2023/11/28 08:27:20;;;;;;;3.17;0.20;;;5.10;99.90;;;;;;5033413;28;20266;-61
2023/11/28 08:29:48;;;;;;;0.33;0.17;;;5.20;99.90;;;;;;5029341;28;20405;-61
2023/11/28 08:32:17;;;;;;;0.13;0.13;;;5.20;99.90;;;;;;5028928;28;20625;-61
2023/11/28 08:34:44;;;;;;;0.20;0.20;;;5.30;99.90;;;;;;5013420;28;20749;-61
2023/11/28 08:37:14;;;;;;;0.30;0.30;;;5.40;99.90;;;;;;5024987;28;20201;-61
2023/11/28 08:39:41;;;;;;;0.30;0.30;;;5.40;99.90;;;;;;5033187;28;20229;-60
2023/11/28 08:42:07;;;;;;;0.30;0.30;;;5.40;99.90;;;;;;5032850;28;20204;-62
2023/11/28 08:44:35;;;;;;;0.50;0.47;;;5.40;99.90;;;;;;5033177;28;20198;-61
2023/11/28 08:47:03;;;;;;;1.27;0.40;;;5.30;99.90;;;;;;5029288;28;20678;-61
2023/11/28 08:49:30;;;;;;;1.10;0.47;;;5.40;99.90;;;;;;5026464;28;20197;-61
2023/11/28 08:51:57;;;;;;;0.60;0.60;;;5.40;99.90;;;;;;5030552;28;20205;-62
2023/11/28 08:54:24;;;;;;;0.77;0.50;;;5.30;99.90;;;;;;5033037;28;20263;-61
2023/11/28 08:56:51;;;;;;;0.30;0.30;;;5.30;99.90;;;;;;5031565;28;20603;-60
2023/11/28 08:59:18;;;;;;;0.47;0.37;;;5.40;99.90;;;;;;5032761;28;20212;-61
2023/11/28 09:01:45;;;;;;;0.73;0.43;;;5.30;99.90;;;;;;5015379;28;20214;-60
2023/11/28 09:04:14;;;;;;;0.80;0.80;;;5.30;99.90;;;;;;5024422;28;20622;-61
2023/11/28 09:06:44;;;;;;;2.87;1.57;;;5.30;99.90;;;;;;5032112;28;20237;-61
2023/11/28 09:09:11;;;;;;;1.13;1.00;;;5.30;99.90;;;;;;5031555;28;20287;-60
2023/11/28 09:11:42;;;;;;;0.50;0.30;;;5.40;99.90;;;;;;5026489;28;20205;-61
2023/11/28 09:14:09;;;;;;;0.20;0.20;;;5.40;99.90;;;;;;5028612;28;20252;-60
2023/11/28 09:16:40;;;;;;;0.63;0.40;;;5.40;99.90;;;;;;5013018;28;20271;-61
2023/11/28 09:19:07;;;;;;;1.07;0.50;;;5.40;99.90;;;;;;5012811;28;20217;-61
2023/11/28 09:21:35;;;;;;;0.20;0.20;;;5.40;99.90;;;;;;5026904;28;20203;-61
2023/11/28 09:24:02;;;;;;;1.27;0.13;;;5.40;99.90;;;;;;5032271;28;20250;-61
2023/11/28 09:26:31;;;;;;;0.00;0.00;;;5.30;99.90;;;;;;5030947;28;20261;-62
2023/11/28 09:28:59;;;;;;;0.00;0.00;;;5.40;99.90;;;;;;5028645;28;20214;-61
2023/11/28 09:31:28;;;;;;;0.10;0.00;;;5.40;99.90;;;;;;5032336;28;20205;-61
2023/11/28 09:33:56;;;;;;;0.00;0.00;;;5.50;99.90;;;;;;5032270;28;20224;-62
2023/11/28 09:36:23;;;;;;;0.00;0.00;;;5.50;99.90;;;;;;5031599;28;20269;-61
2023/11/28 09:38:54;;;;;;;0.30;0.10;;;5.40;99.90;;;;;;5031086;28;20201;-60
2023/11/28 09:41:25;;;;;;;0.67;0.30;;;5.40;99.90;;;;;;5031953;28;20207;-61
2023/11/28 09:43:53;;;;;;;0.43;0.00;;;5.40;99.90;;;;;;5023326;28;20655;-60
2023/11/28 09:46:22;;;;;;;0.00;0.00;;;5.50;99.90;;;;;;5026686;28;20221;-61
2023/11/28 09:48:53;;;;;;;0.00;0.00;;;5.40;99.90;;;;;;5028964;28;20224;-61
2023/11/28 09:51:21;;;;;;;0.30;0.10;;;5.40;99.90;;;;;;5030629;28;20203;-60
2023/11/28 09:53:52;;;;;;;0.30;0.00;;;5.40;99.90;;;;;;5029638;28;20237;-61
2023/11/28 09:56:22;;;;;;;0.37;0.00;;;5.40;99.90;;;;;;5024285;28;20231;-61
2023/11/28 09:58:51;;;;;;;0.90;0.00;;;5.40;99.90;;;;;;5031243;28;20762;-61
2023/11/28 10:01:18;;;;;;;1.03;0.00;;;5.40;99.90;;;;;;5031674;28;20641;-61
2023/11/28 10:03:45;;;;;;;0.00;0.00;;;5.40;99.90;;;;;;5031578;28;20208;-60
2023/11/28 10:06:14;;;;;;;0.40;0.10;;;5.30;99.90;;;;;;5023197;28;20231;-61
2023/11/28 10:08:44;;;;;;;0.00;0.00;;;5.40;99.90;;;;;;5031882;28;20234;-60
2023/11/28 10:11:12;;;;;;;0.93;0.00;;;5.40;99.90;;;;;;5029164;28;20265;-61
2023/11/28 10:13:41;;;;;;;0.03;0.03;;;5.50;99.90;;;;;;5030925;28;20203;-61
2023/11/28 10:16:09;;;;;;;0.00;0.00;;;5.50;99.90;;;;;;5024719;28;20281;-60
2023/11/28 10:18:35;;;;;;;0.23;0.10;;;5.40;99.90;;;;;;5031503;28;20389;-60
2023/11/28 10:21:03;;;;;;;0.10;0.03;;;5.50;99.90;;;;;;5031146;28;20217;-61
2023/11/28 10:23:30;;;;;;;0.20;0.10;;;5.50;99.90;;;;;;5031751;28;20203;-60
2023/11/28 10:25:57;;;;;;;0.20;0.10;;;5.40;99.90;;;;;;5029067;28;20777;-60
2023/11/28 10:28:24;;;;;;;0.20;0.10;;;5.20;99.90;;;;;;5012329;28;20201;-60
2023/11/28 10:30:52;;;;;;;1.00;0.10;;;5.00;99.90;;;;;;5027304;28;20906;-61
2023/11/28 10:33:19;;;;;;;0.00;0.00;;;4.80;99.90;;;;;;5027557;28;20673;-60
2023/11/28 10:35:46;;;;;;;0.00;0.00;;;4.60;99.90;;;;;;5027361;28;20218;-68
2023/11/28 10:38:15;;;;;;;0.47;0.20;;;4.30;99.90;;;;;;5030886;28;20261;-66
2023/11/28 10:40:44;;;;;;;0.10;0.10;;;4.10;99.90;;;;;;5030789;28;20219;-65
2023/11/28 10:43:11;;;;;;;0.00;0.00;;;4.10;99.90;;;;;;5028690;28;20254;-60
2023/11/28 10:45:39;;;;;;;0.00;0.00;;;4.00;99.90;;;;;;5020454;28;20304;-61
2023/11/28 10:48:07;;;;;;;0.00;0.00;;;3.90;99.90;;;;;;5026764;28;20404;-61
2023/11/28 10:50:35;;;;;;;1.23;0.03;;;3.90;99.90;;;;;;5025377;28;20672;-62
2023/11/28 10:53:04;;;;;;;0.53;0.53;;;3.80;99.90;;;;;;5026790;28;20204;-61
2023/11/28 10:55:37;;;;;;;0.00;0.00;;;3.80;99.90;;;;;;5029265;28;20311;-61
2023/11/28 10:58:06;;;;;;;0.20;0.20;;;3.70;99.90;;;;;;5030407;28;20262;-61
2023/11/28 11:00:37;;;;;;;0.10;0.10;;;3.80;99.90;;;;;;5030675;28;20308;-62
2023/11/28 11:03:05;;;;;;;0.23;0.07;;;3.80;99.90;;;;;;5022219;28;20217;-61
2023/11/28 11:05:35;;;;;;;0.20;0.20;;;3.80;99.90;;;;;;5030491;28;20252;-62
2023/11/28 11:08:03;;;;;;;0.00;0.00;;;3.70;99.90;;;;;;5029661;28;20282;-63
2023/11/28 11:10:31;;;;;;;0.57;0.17;;;3.70;99.90;;;;;;5029668;28;20200;-64
2023/11/28 11:13:05;;;;;;;0.20;0.10;;;3.70;99.90;;;;;;5026200;28;20292;-64
2023/11/28 11:15:37;;;;;;;1.20;0.20;;;3.70;99.90;;;;;;5034537;28;20224;-64
2023/11/28 11:18:17;;;;;;;0.10;0.10;;;3.80;99.90;;;;;;5015667;28;20206;-64
2023/11/28 11:20:49;;;;;;;0.10;0.10;;;3.70;99.90;;;;;;5016376;28;20232;-63
2023/11/28 11:23:17;;;;;;;0.20;0.20;;;3.70;99.90;;;;;;5017388;28;20205;-64
2023/11/28 11:25:44;;;;;;;0.20;0.20;;;3.80;99.90;;;;;;5014441;28;20640;-64
2023/11/28 11:28:11;;;;;;;0.20;0.20;;;3.80;99.90;;;;;;5014277;28;20248;-63
2023/11/28 11:30:39;;;;;;;0.30;0.30;;;3.80;99.90;;;;;;5020420;28;20256;-64
2023/11/28 11:33:07;;;;;;;0.87;0.87;;;3.80;99.90;;;;;;5025823;28;20212;-60
2023/11/28 11:36:04;;;;;;;0.47;0.47;;;3.80;99.90;;;;;;5034603;28;20313;-60
2023/11/28 11:38:31;;;;;;;1.70;0.30;;;3.80;99.90;;;;;;5028389;28;20243;-60
2023/11/28 11:40:58;;;;;;;0.30;0.30;;;3.70;99.90;;;;;;5028718;28;20766;-60
2023/11/28 11:43:28;;;;;;;0.30;0.30;;;3.70;99.90;;;;;;5029929;28;20200;-60
2023/11/28 11:46:05;;;;;;;0.50;0.17;;;3.60;99.90;;;;;;5033545;28;20282;-59
2023/11/28 11:48:34;;;;;;;0.30;0.30;;;3.40;99.90;;;;;;5019316;28;20266;-60
2023/11/28 11:51:03;;;;;;;0.20;0.20;;;3.30;99.90;;;;;;5031090;28;20201;-63
2023/11/28 11:53:31;;;;;;;0.20;0.20;;;3.20;99.90;;;;;;5029294;28;20220;-63
2023/11/28 11:56:00;;;;;;;0.43;0.43;;;3.10;99.90;;;;;;5031444;28;20315;-64
2023/11/28 11:58:28;;;;;;;0.30;0.30;;;3.10;99.90;;;;;;5033977;28;20235;-65
2023/11/28 12:00:55;;;;;;;0.40;0.40;;;3.10;99.90;;;;;;5033711;28;20221;-65
2023/11/28 12:03:22;;;;;;;0.33;0.33;;;3.10;99.90;;;;;;5033143;28;20208;-66
2023/11/28 12:05:53;;;;;;;0.30;0.30;;;3.10;99.90;;;;;;5032603;28;20331;-65
2023/11/28 12:08:23;;;;;;;0.50;0.50;;;3.10;99.90;;;;;;5033271;28;20196;-65
2023/11/28 12:10:53;;;;;;;0.30;0.30;;;3.10;99.90;;;;;;5033635;28;20254;-65
2023/11/28 12:13:20;;;;;;;0.30;0.30;;;3.10;99.90;;;;;;5032385;28;20301;-65
2023/11/28 12:15:47;;;;;;;0.30;0.30;;;3.10;99.90;;;;;;5028236;28;20251;-63
2023/11/28 12:18:14;;;;;;;0.30;0.30;;;3.10;99.90;;;;;;5025073;28;20299;-65
2023/11/28 12:20:41;;;;;;;0.50;0.40;;;3.20;99.90;;;;;;5033414;28;20285;-63
2023/11/28 12:23:08;;;;;;;0.60;0.60;;;3.20;99.90;;;;;;5028753;28;20227;-63
2023/11/28 12:25:38;;;;;;;0.33;0.33;;;3.20;99.90;;;;;;5026916;28;20311;-64
2023/11/28 12:28:06;;;;;;;1.07;0.70;;;3.30;99.90;;;;;;5029675;28;20214;-66
2023/11/28 12:30:34;;;;;;;0.37;0.37;;;3.30;99.90;;;;;;5030170;28;20201;-66
2023/11/28 12:33:01;;;;;;;0.40;0.40;;;3.30;99.90;;;;;;5030481;28;20235;-65
2023/11/28 12:35:29;;;;;;;0.37;0.37;;;3.40;99.90;;;;;;5032978;28;20225;-65
2023/11/28 12:37:57;;;;;;;2.53;0.40;;;3.30;99.90;;;;;;5032448;28;20282;-65
2023/11/28 12:40:24;;;;;;;0.60;0.50;;;3.30;99.90;;;;;;5029383;28;20226;-65
2023/11/28 12:42:53;;;;;;;0.40;0.40;;;3.30;99.90;;;;;;5028708;28;20967;-66
2023/11/28 12:45:25;;;;;;;0.60;0.60;;;3.20;99.90;;;;;;5029631;28;20220;-65
2023/11/28 12:47:53;;;;;;;0.67;0.67;;;3.20;99.90;;;;;;5030872;28;20710;-66
2023/11/28 12:50:24;;;;;;;0.50;0.50;;;3.20;99.90;;;;;;5031228;28;20203;-64
2023/11/28 12:52:51;;;;;;;0.37;0.37;;;3.20;99.90;;;;;;5032140;28;20196;-63
2023/11/28 12:55:18;;;;;;;0.80;0.40;;;3.20;99.90;;;;;;5026262;28;20588;-65
2023/11/28 12:57:45;;;;;;;0.43;0.43;;;3.20;99.90;;;;;;5013548;28;20240;-64
2023/11/28 13:00:14;;;;;;;0.40;0.27;;;3.00;99.90;;;;;;5023025;28;20646;-66